Time;durP1;ratioP1;P1;durP2;ratioP2;P2;SDS_P1;SDS_P2;PMS_P1;PMS_P2;Temp;Humidity;BMP_temperature;BMP_pressure;BME280_temperature;BME280_humidity;BME280_pressure;Samples;Min_cycle;Max_cycle;Signal;HPM_P1;HPM_P2
2021/08/08 00:01:30;;;;;;;19.58;12.75;;;22.60;75.90;;;;;;5026229;28;20025;-81
2021/08/08 00:03:56;;;;;;;18.10;10.70;;;22.60;77.00;;;;;;5032321;28;20025;-81
2021/08/08 00:06:22;;;;;;;16.92;10.05;;;22.60;76.30;;;;;;5033211;28;20022;-81
2021/08/08 00:08:48;;;;;;;22.90;11.65;;;22.50;75.40;;;;;;5032001;28;20112;-81
2021/08/08 00:11:14;;;;;;;19.08;10.10;;;22.60;75.60;;;;;;5032889;28;20121;-81
2021/08/08 00:13:40;;;;;;;15.35;11.52;;;22.50;75.70;;;;;;5031940;28;20084;-81
2021/08/08 00:16:06;;;;;;;17.42;10.75;;;22.50;76.90;;;;;;5041256;28;20053;-82
2021/08/08 00:18:32;;;;;;;16.70;10.88;;;22.50;76.70;;;;;;5034971;28;20017;-83
2021/08/08 00:20:58;;;;;;;20.40;10.93;;;22.50;75.80;;;;;;5034224;28;20029;-81
2021/08/08 00:23:24;;;;;;;20.38;9.95;;;22.50;76.90;;;;;;5025108;28;20456;-82
2021/08/08 00:25:50;;;;;;;21.58;9.48;;;22.50;76.30;;;;;;5036682;28;20050;-82
2021/08/08 00:28:16;;;;;;;19.75;10.13;;;22.40;75.00;;;;;;5034268;28;20513;-83
2021/08/08 00:30:42;;;;;;;23.17;9.93;;;22.50;74.80;;;;;;5034434;28;20053;-81
2021/08/08 00:33:08;;;;;;;20.17;9.65;;;22.40;75.60;;;;;;5036210;28;20101;-84
2021/08/08 00:35:34;;;;;;;23.60;10.77;;;22.40;75.60;;;;;;5026240;28;20514;-83
2021/08/08 00:38:00;;;;;;;24.30;11.25;;;22.40;76.70;;;;;;5033390;28;20110;-83
2021/08/08 00:40:26;;;;;;;18.10;9.95;;;22.40;77.40;;;;;;5034104;28;20025;-83
2021/08/08 00:42:52;;;;;;;18.55;10.90;;;22.40;75.90;;;;;;5047357;28;20017;-83
2021/08/08 00:45:20;;;;;;;20.95;10.32;;;22.40;77.10;;;;;;5052512;28;20390;-83
2021/08/08 00:47:46;;;;;;;16.92;11.10;;;22.30;76.40;;;;;;5038474;28;20041;-84
2021/08/08 00:50:14;;;;;;;15.32;10.57;;;22.30;77.20;;;;;;5034085;28;20324;-85
2021/08/08 00:52:40;;;;;;;18.90;10.65;;;22.30;77.40;;;;;;5034003;28;20070;-84
2021/08/08 00:55:07;;;;;;;22.00;10.05;;;22.30;77.00;;;;;;5049845;28;20021;-83
2021/08/08 00:57:33;;;;;;;19.02;9.80;;;22.30;75.60;;;;;;5041635;28;20026;-85
2021/08/08 00:59:59;;;;;;;16.40;10.27;;;22.30;75.20;;;;;;5033721;28;20101;-83
2021/08/08 01:02:25;;;;;;;21.30;9.43;;;22.30;74.90;;;;;;5033479;28;20037;-82
2021/08/08 01:04:58;;;;;;;19.73;9.97;;;22.40;76.50;;;;;;5016052;28;20048;-84
2021/08/08 01:07:31;;;;;;;12.98;10.57;;;22.30;75.90;;;;;;5041199;28;20118;-84
2021/08/08 01:10:01;;;;;;;15.93;9.85;;;22.30;78.00;;;;;;5037587;28;20361;-82
2021/08/08 01:12:27;;;;;;;21.65;10.68;;;22.30;79.10;;;;;;5038394;28;20036;-83
2021/08/08 01:14:58;;;;;;;14.70;10.10;;;22.20;79.30;;;;;;5023702;28;20041;-81
2021/08/08 01:17:25;;;;;;;17.02;10.18;;;22.20;76.70;;;;;;5045490;28;20021;-82
2021/08/08 01:20:00;;;;;;;25.02;10.13;;;22.10;78.30;;;;;;5053257;28;20029;-83
2021/08/08 01:22:30;;;;;;;17.27;10.48;;;22.10;77.70;;;;;;5039854;28;20471;-85
2021/08/08 01:24:58;;;;;;;20.75;10.07;;;22.10;77.50;;;;;;5032713;28;20390;-84
2021/08/08 01:27:25;;;;;;;16.23;9.38;;;22.10;78.90;;;;;;5012369;28;20439;-84
2021/08/08 01:29:55;;;;;;;15.88;9.63;;;22.10;77.50;;;;;;5026110;28;20016;-83
2021/08/08 01:32:21;;;;;;;17.27;10.25;;;22.10;77.50;;;;;;5053200;28;20025;-85
2021/08/08 01:34:48;;;;;;;21.17;11.35;;;22.20;77.30;;;;;;5046784;28;20105;-82
2021/08/08 01:37:19;;;;;;;21.35;9.68;;;22.20;76.10;;;;;;5039742;28;20029;-85
2021/08/08 01:39:50;;;;;;;20.80;8.93;;;22.20;78.10;;;;;;5025469;28;20043;-85
2021/08/08 01:42:17;;;;;;;16.42;9.55;;;22.20;75.90;;;;;;5076019;28;20005;-83
2021/08/08 01:44:48;;;;;;;20.42;9.63;;;22.20;76.60;;;;;;5071010;28;20021;-85
2021/08/08 01:47:18;;;;;;;14.05;8.88;;;22.20;74.90;;;;;;5044455;28;20041;-84
2021/08/08 01:49:44;;;;;;;12.32;9.02;;;22.20;74.50;;;;;;5050536;28;20013;-83
2021/08/08 01:52:11;;;;;;;18.67;8.63;;;22.20;74.50;;;;;;5053878;28;20036;-83
2021/08/08 01:54:38;;;;;;;20.25;9.57;;;22.20;74.50;;;;;;5039087;28;20025;-82
2021/08/08 01:57:07;;;;;;;17.63;8.82;;;22.20;73.90;;;;;;5039212;28;20025;-84
2021/08/08 01:59:33;;;;;;;22.73;10.32;;;22.30;74.20;;;;;;5052809;28;20058;-84
2021/08/08 02:02:14;;;;;;;16.95;9.05;;;22.30;75.20;;;;;;5053229;28;20021;-83
2021/08/08 02:04:40;;;;;;;21.58;9.90;;;22.30;74.50;;;;;;5040284;28;20068;-84
2021/08/08 02:07:11;;;;;;;28.07;9.67;;;22.20;75.60;;;;;;5053289;28;20025;-85
2021/08/08 02:09:38;;;;;;;21.63;9.02;;;22.20;75.30;;;;;;5024078;28;20026;-83
2021/08/08 02:12:04;;;;;;;14.23;8.45;;;22.20;76.10;;;;;;5046985;28;20033;-84
2021/08/08 02:14:31;;;;;;;15.93;8.50;;;22.10;75.90;;;;;;5041318;28;20511;-83
2021/08/08 02:16:57;;;;;;;16.23;8.80;;;22.10;76.00;;;;;;5053590;28;20029;-83
2021/08/08 02:19:23;;;;;;;12.82;8.00;;;22.00;76.50;;;;;;5053045;28;20044;-84
2021/08/08 02:21:49;;;;;;;19.00;8.80;;;21.80;76.00;;;;;;5043658;28;20379;-82
2021/08/08 02:24:14;;;;;;;15.75;8.40;;;21.80;76.30;;;;;;5034570;28;20025;-83
2021/08/08 02:26:40;;;;;;;18.33;10.15;;;21.80;76.80;;;;;;5035382;28;20032;-83
2021/08/08 02:29:06;;;;;;;16.80;9.07;;;21.80;77.30;;;;;;5039590;28;20022;-83
2021/08/08 02:31:43;;;;;;;21.38;9.57;;;21.80;78.90;;;;;;5041996;28;20025;-83
2021/08/08 02:34:10;;;;;;;13.88;9.63;;;21.80;78.40;;;;;;5050510;28;20132;-83
2021/08/08 02:36:36;;;;;;;13.38;9.30;;;21.70;78.20;;;;;;5053436;28;20104;-83
2021/08/08 02:39:03;;;;;;;13.45;9.00;;;21.80;78.40;;;;;;5042454;28;20410;-83
2021/08/08 02:41:29;;;;;;;13.73;9.18;;;21.80;78.90;;;;;;5052086;28;20378;-83
2021/08/08 02:43:55;;;;;;;13.10;8.77;;;21.60;78.80;;;;;;5052559;28;20083;-83
2021/08/08 02:46:22;;;;;;;13.67;8.77;;;21.40;78.90;;;;;;5052190;28;20017;-83
2021/08/08 02:48:48;;;;;;;13.13;8.57;;;21.30;79.50;;;;;;5052748;28;20265;-83
2021/08/08 02:51:15;;;;;;;13.52;9.00;;;21.40;79.90;;;;;;5052345;28;20021;-84
2021/08/08 02:53:41;;;;;;;13.97;9.37;;;21.40;79.50;;;;;;5052719;28;20482;-84
2021/08/08 02:56:07;;;;;;;16.50;8.48;;;21.50;81.10;;;;;;5040209;28;20036;-85
2021/08/08 02:58:32;;;;;;;16.83;8.32;;;21.50;78.60;;;;;;5014633;28;20025;-82
2021/08/08 03:00:58;;;;;;;15.30;9.00;;;21.60;79.50;;;;;;5043064;28;20061;-82
2021/08/08 03:03:24;;;;;;;16.95;9.02;;;21.70;80.00;;;;;;5038551;28;20119;-83
2021/08/08 03:05:50;;;;;;;15.10;9.27;;;21.70;81.00;;;;;;5056349;28;20036;-82
2021/08/08 03:08:16;;;;;;;17.42;9.23;;;21.80;80.90;;;;;;5056225;28;20033;-82
2021/08/08 03:10:42;;;;;;;14.15;8.57;;;21.80;81.30;;;;;;5056720;28;20028;-82
2021/08/08 03:13:08;;;;;;;22.42;9.00;;;21.70;79.20;;;;;;5051720;28;20030;-83
2021/08/08 03:15:34;;;;;;;15.32;9.13;;;21.80;79.70;;;;;;5035945;28;20035;-84
2021/08/08 03:18:00;;;;;;;11.70;8.20;;;21.80;80.90;;;;;;5056367;28;20074;-83
2021/08/08 03:20:26;;;;;;;18.35;9.50;;;21.80;79.90;;;;;;5057288;28;20509;-84
2021/08/08 03:22:52;;;;;;;14.43;9.05;;;21.80;77.80;;;;;;5037946;28;20025;-84
2021/08/08 03:25:18;;;;;;;15.52;8.00;;;21.90;78.90;;;;;;5047931;28;20024;-85
2021/08/08 03:27:45;;;;;;;12.60;8.45;;;21.90;78.80;;;;;;5038358;28;20033;-84
2021/08/08 03:30:11;;;;;;;24.40;9.60;;;21.90;77.30;;;;;;5048274;28;20029;-85
2021/08/08 03:32:37;;;;;;;19.33;8.50;;;22.00;77.20;;;;;;5050960;28;20040;-84
2021/08/08 03:35:04;;;;;;;13.90;8.82;;;21.90;77.10;;;;;;5055693;28;20044;-85
2021/08/08 03:37:30;;;;;;;25.13;9.00;;;21.90;78.70;;;;;;5048178;28;20032;-84
2021/08/08 03:39:56;;;;;;;17.90;9.13;;;21.80;80.20;;;;;;5055270;28;20100;-83
2021/08/08 03:42:22;;;;;;;18.58;9.15;;;21.80;79.90;;;;;;5056276;28;20067;-83
2021/08/08 03:44:50;;;;;;;12.52;8.02;;;21.80;79.20;;;;;;5052026;28;20018;-83
2021/08/08 03:47:18;;;;;;;15.02;8.13;;;21.70;77.60;;;;;;5035159;28;20037;-83
2021/08/08 03:49:44;;;;;;;14.45;8.40;;;21.80;77.90;;;;;;5037040;28;20049;-83
2021/08/08 03:52:10;;;;;;;15.00;10.02;;;21.80;78.10;;;;;;5054962;28;20126;-83
2021/08/08 03:54:36;;;;;;;12.93;8.77;;;21.80;78.00;;;;;;5055322;28;20029;-85
2021/08/08 03:57:02;;;;;;;19.50;9.25;;;21.90;78.60;;;;;;5039078;28;20380;-83
2021/08/08 03:59:28;;;;;;;14.05;8.90;;;21.90;78.80;;;;;;5058985;28;20025;-83
2021/08/08 04:01:54;;;;;;;14.15;8.85;;;21.90;78.00;;;;;;5066543;28;20049;-83
2021/08/08 04:04:19;;;;;;;14.18;8.90;;;22.00;78.00;;;;;;5040620;28;20021;-84
2021/08/08 04:06:45;;;;;;;14.60;9.65;;;22.00;78.80;;;;;;5050855;28;20104;-83
2021/08/08 04:09:11;;;;;;;13.25;9.60;;;22.00;79.40;;;;;;5054607;28;20474;-83
2021/08/08 04:11:37;;;;;;;17.88;9.85;;;22.00;79.70;;;;;;5034617;28;20017;-83
2021/08/08 04:14:03;;;;;;;16.38;8.75;;;22.10;79.40;;;;;;5045814;28;20052;-83
2021/08/08 04:16:29;;;;;;;22.20;10.23;;;22.10;78.70;;;;;;5054595;28;20470;-83
2021/08/08 04:18:55;;;;;;;16.55;9.20;;;22.10;79.30;;;;;;5054577;28;20025;-83
2021/08/08 04:21:21;;;;;;;11.88;8.70;;;22.10;78.90;;;;;;5049126;28;20032;-83
2021/08/08 04:23:47;;;;;;;15.32;9.65;;;22.10;77.80;;;;;;5034962;28;20023;-84
2021/08/08 04:26:13;;;;;;;16.95;9.95;;;22.10;77.70;;;;;;5052629;28;20504;-85
2021/08/08 04:28:41;;;;;;;17.40;10.80;;;22.10;77.30;;;;;;5054493;28;20032;-83
2021/08/08 04:31:08;;;;;;;11.68;9.80;;;22.10;77.30;;;;;;5054538;28;20538;-83
2021/08/08 04:33:35;;;;;;;;;;;22.10;76.70;;;;;;5046243;28;20030;-85
2021/08/08 04:36:02;;;;;;;15.68;9.45;;;22.10;77.20;;;;;;5049043;28;19912;-84
2021/08/08 04:38:27;;;;;;;16.95;10.52;;;22.10;77.00;;;;;;5054607;28;20071;-84
2021/08/08 04:40:53;;;;;;;15.10;9.75;;;22.30;77.00;;;;;;5054298;28;20028;-83
2021/08/08 04:43:19;;;;;;;18.67;9.68;;;22.50;76.70;;;;;;5053538;28;20101;-84
2021/08/08 04:45:45;;;;;;;18.25;10.88;;;22.60;75.80;;;;;;5053468;28;20108;-84
2021/08/08 04:48:11;;;;;;;14.65;9.30;;;22.70;75.20;;;;;;5050504;28;20026;-84
2021/08/08 04:50:37;;;;;;;14.50;10.35;;;22.70;74.80;;;;;;5025102;28;20070;-85
2021/08/08 04:53:02;;;;;;;15.60;9.90;;;22.70;74.80;;;;;;5053291;28;20092;-85
2021/08/08 04:55:28;;;;;;;11.40;9.13;;;22.60;75.10;;;;;;5041988;28;20046;-84
2021/08/08 04:57:54;;;;;;;18.50;10.88;;;22.50;75.40;;;;;;5055591;28;20506;-85
2021/08/08 05:00:20;;;;;;;17.40;10.48;;;22.50;75.60;;;;;;5034582;28;20068;-85
2021/08/08 05:02:47;;;;;;;12.63;9.60;;;22.50;75.40;;;;;;5033806;28;20368;-85
2021/08/08 05:05:14;;;;;;;16.42;9.50;;;22.40;75.60;;;;;;5033657;28;20025;-84
2021/08/08 05:07:41;;;;;;;18.27;10.50;;;22.40;75.80;;;;;;5043375;28;20064;-84
2021/08/08 05:10:09;;;;;;;18.77;9.90;;;22.40;76.20;;;;;;5039298;28;20530;-84
2021/08/08 05:12:35;;;;;;;16.27;11.30;;;22.40;76.30;;;;;;5049526;28;20510;-85
2021/08/08 05:15:01;;;;;;;14.05;9.90;;;22.40;76.70;;;;;;5033574;28;20119;-84
2021/08/08 05:17:27;;;;;;;14.88;10.98;;;22.40;78.50;;;;;;5033087;28;20041;-84
2021/08/08 05:19:52;;;;;;;19.42;10.98;;;22.40;78.90;;;;;;5034261;28;20014;-84
2021/08/08 05:22:18;;;;;;;18.98;10.40;;;22.40;79.60;;;;;;5023630;28;20030;-83
2021/08/08 05:24:44;;;;;;;13.27;9.85;;;22.50;79.70;;;;;;5033983;28;20501;-86
2021/08/08 05:27:10;;;;;;;17.33;10.32;;;22.50;79.70;;;;;;5037312;28;20365;-84
2021/08/08 05:29:36;;;;;;;13.40;10.25;;;22.60;78.50;;;;;;5035221;28;20017;-86
2021/08/08 05:32:02;;;;;;;14.65;10.15;;;22.70;77.20;;;;;;5033900;28;20037;-84
2021/08/08 05:34:28;;;;;;;18.27;10.32;;;22.90;77.50;;;;;;5033329;28;20024;-83
2021/08/08 05:36:54;;;;;;;18.05;10.48;;;23.20;77.50;;;;;;5031906;28;20021;-85
2021/08/08 05:39:20;;;;;;;12.00;9.25;;;23.60;75.80;;;;;;5026538;28;20044;-84
2021/08/08 05:41:47;;;;;;;15.35;9.05;;;24.10;73.50;;;;;;5032883;28;20092;-82
2021/08/08 05:44:13;;;;;;;21.95;9.57;;;24.40;71.00;;;;;;5033478;28;20133;-84
2021/08/08 05:46:38;;;;;;;14.50;9.32;;;24.50;70.60;;;;;;5036677;28;20050;-83
2021/08/08 05:49:07;;;;;;;18.23;9.75;;;24.40;69.10;;;;;;5034340;28;20491;-84
2021/08/08 05:51:35;;;;;;;12.65;8.98;;;24.20;69.70;;;;;;5033693;28;20017;-85
2021/08/08 05:54:02;;;;;;;17.13;10.75;;;24.10;70.40;;;;;;5032879;28;20033;-83
2021/08/08 05:56:28;;;;;;;16.80;9.82;;;24.00;70.60;;;;;;5033457;28;20017;-86
2021/08/08 05:58:53;;;;;;;15.65;10.10;;;23.90;70.90;;;;;;5034885;28;20026;-85
2021/08/08 06:01:20;;;;;;;11.77;9.68;;;23.60;71.70;;;;;;5038452;28;20075;-85
2021/08/08 06:03:47;;;;;;;16.08;9.35;;;23.50;72.50;;;;;;5030362;28;20072;-86
2021/08/08 06:06:13;;;;;;;19.17;10.80;;;23.30;73.00;;;;;;5025195;28;20022;-84
2021/08/08 06:08:39;;;;;;;14.98;10.05;;;23.20;74.30;;;;;;5021690;28;20029;-85
2021/08/08 06:11:05;;;;;;;16.25;9.27;;;23.10;74.30;;;;;;5035415;28;20026;-85
2021/08/08 06:13:31;;;;;;;20.35;10.43;;;23.10;74.50;;;;;;5032802;28;20072;-84
2021/08/08 06:15:57;;;;;;;18.08;9.80;;;23.10;75.20;;;;;;5029359;28;20176;-83
2021/08/08 06:18:23;;;;;;;16.63;10.25;;;23.10;75.80;;;;;;5031460;28;20034;-83
2021/08/08 06:20:49;;;;;;;16.77;10.85;;;23.10;77.00;;;;;;5025072;28;20010;-84
2021/08/08 06:23:15;;;;;;;18.52;10.60;;;23.10;77.40;;;;;;5020079;28;20033;-83
2021/08/08 06:25:40;;;;;;;14.73;9.82;;;23.10;76.90;;;;;;5024342;28;20046;-84
2021/08/08 06:28:06;;;;;;;18.50;9.98;;;23.10;76.30;;;;;;5021834;28;20044;-83
2021/08/08 06:30:32;;;;;;;13.43;11.13;;;23.10;76.70;;;;;;5004345;28;20018;-84
2021/08/08 06:32:58;;;;;;;25.63;10.25;;;23.10;77.20;;;;;;5007881;28;20017;-84
2021/08/08 06:35:24;;;;;;;19.88;11.10;;;23.00;77.80;;;;;;5027873;28;20022;-82
2021/08/08 06:37:50;;;;;;;11.40;9.40;;;23.00;78.20;;;;;;5025032;28;20029;-86
2021/08/08 06:40:16;;;;;;;14.20;9.93;;;23.10;78.40;;;;;;5031852;28;20053;-84
2021/08/08 06:42:42;;;;;;;15.10;10.33;;;23.30;78.50;;;;;;5010053;28;20464;-85
2021/08/08 06:45:08;;;;;;;13.90;10.55;;;23.40;78.40;;;;;;5030338;28;20037;-84
2021/08/08 06:47:34;;;;;;;18.20;10.30;;;23.50;78.30;;;;;;5028521;28;20040;-83
2021/08/08 06:50:00;;;;;;;17.05;10.55;;;23.60;78.30;;;;;;5029896;28;20029;-82
2021/08/08 06:52:26;;;;;;;18.58;10.95;;;23.70;78.60;;;;;;5030960;28;20030;-83
2021/08/08 06:54:52;;;;;;;19.23;12.43;;;23.90;78.20;;;;;;5027562;28;20037;-82
2021/08/08 06:57:25;;;;;;;17.48;10.90;;;23.90;78.20;;;;;;5013485;28;20036;-82
2021/08/08 06:59:51;;;;;;;16.27;11.90;;;23.90;78.10;;;;;;5026442;28;20018;-85
2021/08/08 07:02:26;;;;;;;17.50;11.63;;;23.90;78.30;;;;;;5031428;28;20071;-85
2021/08/08 07:04:52;;;;;;;19.35;12.43;;;24.00;78.30;;;;;;5017018;28;20029;-82
2021/08/08 07:07:18;;;;;;;20.45;11.75;;;24.10;78.70;;;;;;5027445;28;20034;-83
2021/08/08 07:09:44;;;;;;;16.20;13.00;;;24.20;78.30;;;;;;5018872;28;20423;-85
2021/08/08 07:12:10;;;;;;;19.60;12.43;;;24.20;78.90;;;;;;5029567;28;20021;-84
2021/08/08 07:14:36;;;;;;;16.00;12.10;;;24.20;79.30;;;;;;5033142;28;20479;-85
2021/08/08 07:17:02;;;;;;;16.98;12.52;;;24.20;79.20;;;;;;5027450;28;20159;-84
2021/08/08 07:19:28;;;;;;;20.42;13.52;;;24.20;80.00;;;;;;5014782;28;20026;-83
2021/08/08 07:21:54;;;;;;;20.92;13.95;;;24.20;80.40;;;;;;5014932;28;20057;-83
2021/08/08 07:24:21;;;;;;;21.05;13.73;;;24.30;80.80;;;;;;5009603;28;20034;-82
2021/08/08 07:26:48;;;;;;;19.52;14.02;;;24.50;80.50;;;;;;5022651;28;20021;-81
2021/08/08 07:29:13;;;;;;;17.63;14.33;;;24.70;80.60;;;;;;5007317;28;20032;-83
2021/08/08 07:31:39;;;;;;;20.92;13.93;;;25.00;79.40;;;;;;5015266;28;20025;-83
2021/08/08 07:34:05;;;;;;;18.98;14.00;;;25.10;79.30;;;;;;5016786;28;20025;-84
2021/08/08 07:36:31;;;;;;;23.88;13.98;;;25.10;79.70;;;;;;5016629;28;20029;-86
2021/08/08 07:38:57;;;;;;;21.42;13.70;;;25.20;80.00;;;;;;4995684;28;20023;-86
2021/08/08 07:41:23;;;;;;;20.33;13.90;;;25.20;80.10;;;;;;5024729;28;20071;-86
2021/08/08 07:43:49;;;;;;;17.60;14.20;;;25.10;80.50;;;;;;5021289;28;20392;-86
2021/08/08 07:46:15;;;;;;;18.65;14.05;;;25.00;80.20;;;;;;5012637;28;20084;-85
2021/08/08 07:48:41;;;;;;;18.42;14.00;;;25.00;80.40;;;;;;5013695;28;20033;-85
2021/08/08 07:51:07;;;;;;;22.90;14.38;;;24.80;80.80;;;;;;5013980;28;20049;-84
2021/08/08 07:53:34;;;;;;;16.17;13.95;;;24.70;81.30;;;;;;5014523;28;20422;-84
2021/08/08 07:56:00;;;;;;;19.77;14.85;;;24.50;82.30;;;;;;5014782;28;20384;-85
2021/08/08 07:58:26;;;;;;;17.67;13.93;;;24.30;82.90;;;;;;5009852;28;20025;-82
2021/08/08 08:00:52;;;;;;;24.17;14.10;;;24.20;83.40;;;;;;5011393;28;20029;-81
2021/08/08 08:03:18;;;;;;;19.63;14.02;;;24.30;83.90;;;;;;5022150;28;20022;-84
2021/08/08 08:05:44;;;;;;;24.20;14.52;;;24.40;84.10;;;;;;5017706;28;20025;-84
2021/08/08 08:08:10;;;;;;;21.75;14.15;;;24.50;83.50;;;;;;5015381;28;20048;-83
2021/08/08 08:10:36;;;;;;;21.88;14.07;;;24.80;82.80;;;;;;5018023;28;20105;-82
2021/08/08 08:13:02;;;;;;;18.10;13.48;;;24.90;82.40;;;;;;5022938;28;20549;-84
2021/08/08 08:15:29;;;;;;;21.88;14.70;;;24.80;82.10;;;;;;5050538;28;20021;-84
2021/08/08 08:17:55;;;;;;;20.08;15.15;;;24.70;82.40;;;;;;5038524;28;20379;-84
2021/08/08 08:20:22;;;;;;;15.50;13.00;;;24.70;82.70;;;;;;5019371;28;20156;-85
2021/08/08 08:22:48;;;;;;;18.10;13.73;;;24.60;82.80;;;;;;5038655;28;20488;-83
2021/08/08 08:25:14;;;;;;;15.27;12.47;;;24.50;82.10;;;;;;5041061;28;20471;-84
2021/08/08 08:27:41;;;;;;;18.23;12.98;;;24.40;81.90;;;;;;5041900;28;20045;-84
2021/08/08 08:30:08;;;;;;;17.42;11.93;;;24.20;82.70;;;;;;5033901;28;20387;-86
2021/08/08 08:32:34;;;;;;;15.80;11.73;;;24.10;83.10;;;;;;5041395;28;20180;-84
2021/08/08 08:35:04;;;;;;;16.80;11.27;;;24.00;82.90;;;;;;5033972;28;20029;-84
2021/08/08 08:37:33;;;;;;;15.07;10.73;;;23.90;83.20;;;;;;5031219;28;20048;-82
2021/08/08 08:40:00;;;;;;;16.13;11.15;;;23.80;83.90;;;;;;5034124;28;20017;-85
2021/08/08 08:42:28;;;;;;;18.67;12.00;;;23.80;83.60;;;;;;5036508;28;20386;-85
2021/08/08 08:44:55;;;;;;;18.73;11.38;;;23.80;84.30;;;;;;5040049;28;20091;-83
2021/08/08 08:47:22;;;;;;;14.27;8.88;;;23.80;83.60;;;;;;5024652;28;20033;-84
2021/08/08 08:49:54;;;;;;;12.77;9.13;;;23.80;82.50;;;;;;5036054;28;20032;-84
2021/08/08 08:52:26;;;;;;;14.50;8.57;;;23.70;81.90;;;;;;5036260;28;20029;-85
2021/08/08 08:54:53;;;;;;;10.77;9.63;;;23.60;82.10;;;;;;5039224;28;20026;-83
2021/08/08 08:57:19;;;;;;;15.23;9.05;;;23.50;82.70;;;;;;5016656;28;20025;-85
2021/08/08 08:59:47;;;;;;;14.68;9.57;;;23.50;83.20;;;;;;5033330;28;20106;-84
2021/08/08 09:02:14;;;;;;;11.38;8.85;;;23.30;83.90;;;;;;5034019;28;20032;-82
2021/08/08 09:04:40;;;;;;;14.38;9.55;;;23.20;84.80;;;;;;5034210;28;20148;-86
2021/08/08 09:07:06;;;;;;;16.70;8.40;;;23.20;85.80;;;;;;5036700;28;20038;-87
2021/08/08 09:09:33;;;;;;;11.68;8.18;;;23.10;85.60;;;;;;5037144;28;20163;-88
2021/08/08 09:11:59;;;;;;;11.38;8.38;;;23.10;85.90;;;;;;5036121;28;20028;-83
2021/08/08 09:14:25;;;;;;;10.52;8.82;;;22.90;87.80;;;;;;5019567;28;20410;-84
2021/08/08 09:16:53;;;;;;;10.95;9.05;;;22.90;88.00;;;;;;5053039;28;20021;-85
2021/08/08 09:19:23;;;;;;;14.43;9.63;;;23.10;87.50;;;;;;5053318;28;20094;-84
2021/08/08 09:21:51;;;;;;;11.82;8.88;;;23.10;87.50;;;;;;5038862;28;20025;-83
2021/08/08 09:24:24;;;;;;;;;;;23.30;87.50;;;;;;5047315;28;20115;-84
2021/08/08 09:26:59;;;;;;;11.75;8.82;;;23.30;86.60;;;;;;5037647;28;19947;-84
2021/08/08 09:29:25;;;;;;;9.82;8.82;;;23.40;86.70;;;;;;5033322;28;20017;-84
2021/08/08 09:31:51;;;;;;;10.73;9.18;;;23.40;86.30;;;;;;5035173;28;20037;-83
2021/08/08 09:34:40;;;;;;;8.98;8.07;;;23.40;86.40;;;;;;5034947;28;20121;-85
2021/08/08 09:37:22;;;;;;;10.57;7.95;;;23.50;85.30;;;;;;5042166;28;20027;-82
2021/08/08 09:39:52;;;;;;;12.38;7.78;;;23.60;84.60;;;;;;5033019;28;20079;-83
2021/08/08 09:42:24;;;;;;;10.20;8.50;;;23.70;84.60;;;;;;5039777;28;20072;-85
2021/08/08 09:45:06;;;;;;;11.45;8.35;;;23.70;83.60;;;;;;5015808;28;20560;-85
2021/08/08 09:47:53;;;;;;;9.07;7.30;;;23.80;84.40;;;;;;5033821;28;20087;-85
2021/08/08 09:50:23;;;;;;;8.32;7.53;;;23.80;82.30;;;;;;5037662;28;20025;-85
2021/08/08 09:53:03;;;;;;;10.07;7.82;;;23.90;82.10;;;;;;5034307;28;20076;-85
2021/08/08 09:55:37;;;;;;;9.00;7.72;;;23.90;82.70;;;;;;5030107;28;20032;-84
2021/08/08 09:58:24;;;;;;;14.73;9.25;;;24.00;82.60;;;;;;5032219;28;20021;-84
2021/08/08 10:00:56;;;;;;;10.23;8.18;;;24.50;81.40;;;;;;5028769;28;20045;-81
2021/08/08 10:03:22;;;;;;;15.30;9.23;;;24.90;79.50;;;;;;5032955;28;20374;-84
2021/08/08 10:05:48;;;;;;;12.18;8.20;;;25.20;79.00;;;;;;5014556;28;20017;-82
2021/08/08 10:08:16;;;;;;;9.63;7.13;;;25.40;78.20;;;;;;5031729;28;20092;-81
2021/08/08 10:10:45;;;;;;;11.93;8.20;;;25.20;76.90;;;;;;5032349;28;20020;-81
2021/08/08 10:13:52;;;;;;;8.65;7.60;;;25.10;76.70;;;;;;5043066;28;20521;-84
2021/08/08 10:16:19;;;;;;;10.32;7.38;;;25.00;77.60;;;;;;5029464;28;20363;-84
2021/08/08 10:18:53;;;;;;;8.50;7.05;;;25.20;77.60;;;;;;5056293;28;20025;-83
2021/08/08 10:21:19;;;;;;;8.93;6.75;;;25.40;76.20;;;;;;5053823;28;20036;-89
2021/08/08 10:23:47;;;;;;;13.18;7.28;;;25.40;75.70;;;;;;5057050;28;20083;-89
2021/08/08 10:26:13;;;;;;;11.88;7.10;;;25.60;75.40;;;;;;5031372;28;20487;-87
2021/08/08 10:28:40;;;;;;;10.98;6.60;;;25.60;74.80;;;;;;5030780;28;20129;-86
2021/08/08 10:31:07;;;;;;;11.88;7.35;;;25.40;74.10;;;;;;5052489;28;20544;-86
2021/08/08 10:33:48;;;;;;;9.57;6.50;;;25.10;74.90;;;;;;5046948;28;20025;-85
2021/08/08 10:36:18;;;;;;;7.40;6.15;;;24.90;75.80;;;;;;5035619;28;20021;-83
2021/08/08 10:38:44;;;;;;;9.05;6.90;;;24.60;76.10;;;;;;5059830;28;20025;-84
2021/08/08 10:41:10;;;;;;;6.55;5.80;;;24.60;75.80;;;;;;5040363;28;20401;-83
2021/08/08 10:43:36;;;;;;;7.30;6.57;;;24.40;76.20;;;;;;5038865;28;20033;-82
2021/08/08 10:46:10;;;;;;;9.07;6.72;;;24.30;77.20;;;;;;5037989;28;20353;-82
2021/08/08 10:48:38;;;;;;;9.23;6.95;;;24.40;77.00;;;;;;5010920;28;20086;-82
2021/08/08 10:51:17;;;;;;;8.65;6.32;;;24.30;77.20;;;;;;5043470;28;20080;-84
2021/08/08 10:53:42;;;;;;;7.55;6.85;;;24.20;78.00;;;;;;5044008;28;20100;-85
2021/08/08 10:56:11;;;;;;;10.48;6.72;;;24.20;77.90;;;;;;5044756;28;20481;-82
2021/08/08 10:58:41;;;;;;;10.98;6.45;;;24.40;77.80;;;;;;5055614;28;20075;-84
2021/08/08 11:01:18;;;;;;;8.55;7.32;;;24.50;77.50;;;;;;5028273;28;20083;-84
2021/08/08 11:03:52;;;;;;;11.55;6.63;;;24.50;77.30;;;;;;5054516;28;20057;-84
2021/08/08 11:06:26;;;;;;;9.50;6.55;;;24.50;77.40;;;;;;5041823;28;20065;-83
2021/08/08 11:08:58;;;;;;;10.95;7.35;;;24.50;77.40;;;;;;5037734;28;20079;-83
2021/08/08 11:11:29;;;;;;;10.50;6.93;;;24.40;77.70;;;;;;5026436;28;20387;-83
2021/08/08 11:14:15;;;;;;;11.02;7.03;;;24.30;78.60;;;;;;5054360;28;20049;-83
2021/08/08 11:16:44;;;;;;;7.50;6.80;;;24.30;78.60;;;;;;5063158;28;20017;-82
2021/08/08 11:19:11;;;;;;;8.02;7.22;;;24.40;78.80;;;;;;5055710;28;20072;-84
2021/08/08 11:21:38;;;;;;;15.07;7.53;;;24.50;78.50;;;;;;5030053;28;20044;-83
2021/08/08 11:24:08;;;;;;;14.98;7.97;;;24.70;78.20;;;;;;5031422;28;20563;-83
2021/08/08 11:26:35;;;;;;;10.57;7.60;;;24.80;79.00;;;;;;5037670;28;20025;-84
2021/08/08 11:29:04;;;;;;;13.20;7.18;;;24.80;77.00;;;;;;5056231;28;20490;-81
2021/08/08 11:31:35;;;;;;;11.60;8.73;;;24.70;76.80;;;;;;5056580;28;20032;-84
2021/08/08 11:34:09;;;;;;;9.73;7.88;;;24.60;77.90;;;;;;5059528;28;20021;-86
2021/08/08 11:36:37;;;;;;;9.82;6.65;;;24.60;78.30;;;;;;5043497;28;20044;-85
2021/08/08 11:39:06;;;;;;;13.35;10.43;;;24.50;77.50;;;;;;5040925;28;20053;-84
2021/08/08 11:41:32;;;;;;;10.80;7.60;;;24.40;78.30;;;;;;5018514;28;20021;-83
2021/08/08 11:44:06;;;;;;;18.45;10.85;;;24.50;78.40;;;;;;5034409;28;20030;-85
2021/08/08 11:46:33;;;;;;;9.55;7.45;;;24.50;79.00;;;;;;5035326;28;20382;-85
2021/08/08 11:48:59;;;;;;;10.35;7.38;;;24.40;78.60;;;;;;5045129;28;20036;-86
2021/08/08 11:51:25;;;;;;;13.50;8.18;;;24.20;79.30;;;;;;5037802;28;20022;-86
2021/08/08 11:53:56;;;;;;;10.65;7.63;;;24.10;79.30;;;;;;5034848;28;20033;-84
2021/08/08 11:56:30;;;;;;;10.10;7.28;;;24.10;79.30;;;;;;5018379;28;20108;-87
2021/08/08 11:58:57;;;;;;;8.73;6.88;;;24.00;79.10;;;;;;5047001;28;20017;-86
2021/08/08 12:01:25;;;;;;;11.95;7.78;;;24.00;79.50;;;;;;5017743;28;20059;-86
2021/08/08 12:03:52;;;;;;;6.95;5.68;;;24.10;79.40;;;;;;5042315;28;20082;-85
2021/08/08 12:06:19;;;;;;;;;;;24.10;78.40;;;;;;5044234;28;20030;-86
2021/08/08 12:08:46;;;;;;;;;;;24.00;78.80;;;;;;5045428;28;19913;-85
2021/08/08 12:11:11;;;;;;;9.20;7.43;;;24.00;79.30;;;;;;5040430;28;20362;-87
2021/08/08 12:13:37;;;;;;;9.35;7.07;;;24.10;79.70;;;;;;5050168;28;20056;-83
2021/08/08 12:16:14;;;;;;;9.63;8.00;;;24.20;79.40;;;;;;5039650;28;20027;-87
2021/08/08 12:18:40;;;;;;;12.00;8.30;;;24.40;79.60;;;;;;5038477;28;20033;-88
2021/08/08 12:21:17;;;;;;;13.48;7.35;;;24.50;78.50;;;;;;5036178;28;20021;-85
2021/08/08 12:23:43;;;;;;;13.95;7.95;;;24.60;78.20;;;;;;5048373;28;20032;-85
2021/08/08 12:26:09;;;;;;;12.32;8.00;;;24.70;79.00;;;;;;5018178;28;20052;-81
2021/08/08 12:28:35;;;;;;;16.40;7.72;;;24.80;78.30;;;;;;5039908;28;20026;-84
2021/08/08 12:31:06;;;;;;;15.65;8.38;;;24.90;77.60;;;;;;5034867;28;20096;-86
2021/08/08 12:33:32;;;;;;;12.45;8.82;;;25.10;76.90;;;;;;5033950;28;20025;-85
2021/08/08 12:36:09;;;;;;;12.85;7.72;;;25.40;75.40;;;;;;5034866;28;20384;-84
2021/08/08 12:38:46;;;;;;;10.70;7.57;;;25.70;75.00;;;;;;5033910;28;20055;-84